Patcona II — WDC2170 — position and weather

sailwx.info

Track history (hours):
 
Tides and Currents Weather Stations Pressure Air Temp Water Temp Dewpoint Dewpoint Depression Visibility Wind Speed Wind Dir Waves Ship Positions

Patcona II

Owner: Connolly-Pacific Co, long beach, CA. More information available from US FCC via Universal Licensing System and Coast Guard Vessel Documentation Center.

Last reported at 2015-Mar-28 00:34 UTC. Time now 2015-Mar-28 00:36 UTC.
Position N 33°46' W 118°13'.

; draft 9 m.

Type: Towing. MMSI: 366988960.

Date/timePositionNaut miles runAvg speedWind from/ knotsBaromVisibWave heightAir tempDewpointWater temp
2015-Mar-28 00:34N 33°46' W 118°13'12041444608.6
2015-Mar-28 00:33N 29°45' W 095°06'12041204.2
2015-Mar-27 23:33N 33°46' W 118°13'120414071.2
2015-Mar-27 23:28N 29°45' W 095°06'12041316.9
2015-Mar-27 22:33N 33°46' W 118°13'12043587.7
2015-Mar-27 22:13N 29°45' W 095°06'12041811.8
2015-Mar-27 21:33N 33°46' W 118°13'120414398.5
2015-Mar-27 21:28N 29°45' W 095°06'12041313.3
2015-Mar-27 20:33N 33°46' W 118°13'120414303.4
2015-Mar-27 20:28N 29°45' W 095°06'12041314.9
2015-Mar-27 19:33N 33°46' W 118°13'120433858.7
2015-Mar-27 19:31N 29°45' W 095°06'12041245.4
2015-Mar-27 18:33N 33°46' W 118°13'120414592.4
2015-Mar-27 18:28N 29°45' W 095°06'12041315.3
2015-Mar-27 17:33N 33°46' W 118°13'120414071.2
2015-Mar-27 17:28N 29°45' W 095°06'12041312.5
2015-Mar-27 16:33N 33°46' W 118°13'120437361.5
2015-Mar-27 16:31N 29°45' W 095°06'12041247.5
2015-Mar-27 15:33N 33°46' W 118°13'1204270870.9
2015-Mar-27 15:33N 29°45' W 095°06'12041209.6
2015-Mar-27 14:34N 33°46' W 118°13'1202540742.2
2015-Mar-27 14:33N 29°44' W 095°09'1 1.2
2015-Mar-27 13:33N 29°45' W 095°10'1201540252.2
2015-Mar-27 13:33N 33°46' W 118°13'0 0.0
2015-Mar-27 12:33N 33°46' W 118°13'0 0.0
2015-Mar-27 11:33N 33°46' W 118°13'12011203.6
2015-Mar-27 10:33N 29°45' W 095°10'1201432201.8
2015-Mar-27 10:33N 33°46' W 118°13'0 0.0
2015-Mar-27 09:33N 33°46' W 118°13'0 0.0
2015-Mar-27 08:33N 33°46' W 118°13'0 0.0
2015-Mar-27 07:34N 33°46' W 118°13'12017974.2
2015-Mar-27 07:24N 29°45' W 095°10'12011413.3
2015-Mar-27 06:34N 33°46' W 118°13'120131317.8
2015-Mar-27 06:31N 29°45' W 095°10'12011247.6
2015-Mar-27 05:33N 33°46' W 118°13'0 0.0
2015-Mar-27 04:33N 33°46' W 118°13'0 0.0
2015-Mar-27 03:34N 33°46' W 118°13'0 0.0
2015-Mar-27 02:33N 33°46' W 118°13'0 0.0
2015-Mar-27 01:34N 33°46' W 118°13'0 0.0
2015-Mar-27 00:34N 33°46' W 118°13'0 0.0
2015-Mar-26 23:33N 33°46' W 118°13'0 0.0
2015-Mar-26 22:33N 33°46' W 118°13'0 0.0
2015-Mar-26 21:33N 33°46' W 118°13'0 0.0
2015-Mar-26 20:34N 33°46' W 118°13'0 0.0
2015-Mar-26 19:33N 33°46' W 118°13'0 0.0
2015-Mar-26 18:33N 33°46' W 118°13'120465653.3
2015-Mar-26 18:32N 29°44' W 095°06'12041226.1
2015-Mar-26 17:33N 33°46' W 118°13'119719864.7
2015-Mar-26 17:30N 29°43' W 095°14'11971275.0
2015-Mar-26 16:34N 33°46' W 118°13'0 0.0
2015-Mar-26 15:33N 33°46' W 118°13'0 0.0
2015-Mar-26 14:33N 33°46' W 118°13'0 0.0
2015-Mar-26 13:33N 33°46' W 118°13'0 0.0
2015-Mar-26 12:33N 33°46' W 118°13'0 0.0
2015-Mar-26 11:33N 33°46' W 118°13'0 0.0
2015-Mar-26 10:33N 33°46' W 118°13'119812719.6
2015-Mar-26 10:28N 29°43' W 095°14'11981325.9
2015-Mar-26 09:33N 33°46' W 118°13'120390210.4
2015-Mar-26 09:33N 29°44' W 095°08'12031219.1
2015-Mar-26 08:33N 33°46' W 118°13'0 0.0
2015-Mar-26 07:33N 33°46' W 118°13'0 0.0
2015-Mar-26 06:33N 33°46' W 118°13'0 0.0
2015-Mar-26 05:34N 33°46' W 118°13'0 0.0
2015-Mar-26 04:33N 33°46' W 118°13'0 0.0
2015-Mar-26 03:33N 33°46' W 118°13'0 0.0
2015-Mar-26 02:30N 33°46' W 118°13'12041270.7
2015-Mar-26 01:33N 29°45' W 095°06'1204433423.8
2015-Mar-26 01:33N 33°46' W 118°13'0 0.0
2015-Mar-26 00:33N 33°46' W 118°13'12027884.1
2015-Mar-26 00:24N 29°44' W 095°08'12021419.1
2015-Mar-25 23:33N 33°46' W 118°13'1202196743.2
2015-Mar-25 23:33N 29°44' W 095°08'12021212.4
2015-Mar-25 22:33N 33°46' W 118°13'1202149253.5
2015-Mar-25 22:33N 29°44' W 095°08'12021212.8
2015-Mar-25 21:34N 33°46' W 118°13'12024328350.9
2015-Mar-25 21:33N 29°44' W 095°08'12021202.3
2015-Mar-25 20:33N 33°46' W 118°13'120243283.6
2015-Mar-25 20:32N 29°44' W 095°08'12021236.7
2015-Mar-25 19:33N 33°46' W 118°13'119953292.3
2015-Mar-25 19:32N 29°44' W 095°12'11991219.7
2015-Mar-25 18:33N 33°46' W 118°13'11957338.3
2015-Mar-25 18:23N 29°45' W 095°17'11951436.8
2015-Mar-25 17:34N 33°46' W 118°13'119517551.9
2015-Mar-25 17:29N 29°45' W 095°17'0 0.0
2015-Mar-25 16:32N 29°45' W 095°17'119514676.5
2015-Mar-25 16:27N 33°46' W 118°13'0 0.0
2015-Mar-25 15:33N 33°46' W 118°13'119561431.9
2015-Mar-25 15:32N 29°45' W 095°17'11951200.8
2015-Mar-25 14:33N 33°46' W 118°13'1195172009.7
2015-Mar-25 14:32N 29°45' W 095°17'11951210.3
2015-Mar-25 13:33N 33°46' W 118°13'1195102386.2
2015-Mar-25 13:32N 29°45' W 095°17'11951194.5
2015-Mar-25 12:32N 33°46' W 118°13'0 0.0
2015-Mar-25 11:33N 33°46' W 118°13'11978290.1
2015-Mar-25 11:25N 29°43' W 095°14'11971377.3
2015-Mar-25 10:33N 33°46' W 118°13'119826955.1
2015-Mar-25 10:30N 29°44' W 095°14'11981268.9
2015-Mar-25 09:33N 33°46' W 118°13'0 0.0
2015-Mar-25 08:33N 33°46' W 118°13'0 0.0
2015-Mar-25 07:31N 33°46' W 118°13'0 0.0
2015-Mar-25 06:33N 33°46' W 118°13'0 0.0
2015-Mar-25 05:33N 33°46' W 118°13'0 0.0
2015-Mar-25 04:33N 33°46' W 118°13'119811349.5
2015-Mar-25 04:27N 29°44' W 095°14'11981123.4
2015-Mar-25 03:23N 33°46' W 118°13'119835063.6
2015-Mar-25 03:21N 29°44' W 095°14'11981499.1
2015-Mar-25 02:33N 33°46' W 118°13'11987884.5
2015-Mar-25 02:24N 29°44' W 095°14'11981422.0
2015-Mar-25 01:33N 33°46' W 118°13'1198179701.6
2015-Mar-25 01:33N 29°44' W 095°14'0 0.0
2015-Mar-25 00:33N 29°44' W 095°14'119882939.2
2015-Mar-25 00:32N 33°46' W 118°13'0 0.0
2015-Mar-24 23:33N 33°46' W 118°13'1198107851.3
2015-Mar-24 23:33N 29°44' W 095°13'11981215.2
2015-Mar-24 22:33N 33°46' W 118°13'120462793.7
2015-Mar-24 22:32N 29°44' W 095°07'5 5.1
2015-Mar-24 21:33N 29°43' W 095°01'120962153.4
2015-Mar-24 21:32N 33°46' W 118°13'12131236.2
2015-Mar-24 20:33N 29°39' W 094°58'1213485006.9
2015-Mar-24 20:33N 33°46' W 118°13'12181220.9
2015-Mar-24 19:33N 29°33' W 094°54'12184383088.7
2015-Mar-24 19:33N 33°46' W 118°13'0 0.0
2015-Mar-24 18:33N 33°46' W 118°13'0 0.0
2015-Mar-24 17:33N 33°46' W 118°13'12246625.9
2015-Mar-24 17:22N 29°22' W 094°50'12241491.1
2015-Mar-24 16:33N 33°46' W 118°13'0 0.0
2015-Mar-24 15:17N 33°46' W 118°13'0 0.0
2015-Mar-24 14:33N 33°46' W 118°13'0 0.0
2015-Mar-24 13:32N 33°46' W 118°13'12207680.8
2015-Mar-24 13:22N 29°22' W 094°55'12201485.3
2015-Mar-24 12:33N 33°46' W 118°13'0 0.0
2015-Mar-24 11:33N 33°46' W 118°13'0 0.0
2015-Mar-24 10:34N 33°46' W 118°13'0 0.0
2015-Mar-24 09:22N 33°46' W 118°13'0 0.0
2015-Mar-24 08:28N 33°46' W 118°13'0 0.0
2015-Mar-24 07:33N 33°46' W 118°13'0 0.0
2015-Mar-24 06:33N 33°46' W 118°13'0 0.0
2015-Mar-24 05:31N 33°46' W 118°13'0 0.0
2015-Mar-24 04:32N 33°46' W 118°13'0 0.0
2015-Mar-24 03:33N 33°46' W 118°13'0 0.0
2015-Mar-24 02:33N 33°46' W 118°13'0 0.0
2015-Mar-24 01:33N 33°46' W 118°13'0 0.0
2015-Mar-24 00:33N 33°46' W 118°13'0 0.0
2015-Mar-23 23:33N 33°46' W 118°13'0 0.0
2015-Mar-23 22:34N 33°46' W 118°13'0 0.0
2015-Mar-23 21:33N 33°46' W 118°13'0 0.0
2015-Mar-23 20:33N 33°46' W 118°13'0 0.0
2015-Mar-23 19:33N 33°46' W 118°13'0 0.0
2015-Mar-23 18:33N 33°46' W 118°13'0 0.0
2015-Mar-23 17:32N 33°46' W 118°13'0 0.0
2015-Mar-23 16:33N 33°46' W 118°13'0 0.0
2015-Mar-23 15:33N 33°46' W 118°13'0 0.0
2015-Mar-23 14:33N 33°46' W 118°13'0 0.0
2015-Mar-23 13:33N 33°46' W 118°13'0 0.0
2015-Mar-23 12:33N 33°46' W 118°13'0 0.0
2015-Mar-23 11:34N 33°46' W 118°13'0 0.0
2015-Mar-23 10:33N 33°46' W 118°13'0 0.0
2015-Mar-23 09:34N 33°46' W 118°13'0 0.0
2015-Mar-23 08:34N 33°46' W 118°13'0 0.0
2015-Mar-23 07:32N 33°46' W 118°13'0 0.0
2015-Mar-23 06:33N 33°46' W 118°13'0 0.0
2015-Mar-23 05:33N 33°46' W 118°13'0 0.0
2015-Mar-23 04:32N 33°46' W 118°13'0 0.0
2015-Mar-23 03:33N 33°46' W 118°13'0 0.0
2015-Mar-23 02:33N 33°46' W 118°13'0 0.0
2015-Mar-23 01:33N 33°46' W 118°13'0 0.0
2015-Mar-23 00:33N 33°46' W 118°13'0 0.0
2015-Mar-22 23:33N 33°46' W 118°13'12202657.8
2015-Mar-22 23:05N 29°22' W 094°55'12202212.2
2015-Mar-22 22:32N 33°46' W 118°13'122321584.8
2015-Mar-22 22:29N 29°23' W 094°51'12231323.5
2015-Mar-22 21:33N 33°46' W 118°13'0 0.0
2015-Mar-22 20:33N 33°46' W 118°13'0 0.0
2015-Mar-22 19:33N 33°46' W 118°13'0 0.0
2015-Mar-22 18:33N 33°46' W 118°13'0 0.0
2015-Mar-22 17:33N 33°46' W 118°13'0 0.0
2015-Mar-22 16:33N 33°46' W 118°13'0 0.0
2015-Mar-22 15:18N 33°46' W 118°13'0 0.0
2015-Mar-22 14:33N 33°46' W 118°13'0 0.0
2015-Mar-22 13:32N 33°46' W 118°13'0 0.0
2015-Mar-22 12:24N 33°46' W 118°13'0 0.0
2015-Mar-22 11:33N 33°46' W 118°13'0 0.0
2015-Mar-22 10:31N 33°46' W 118°13'0 0.0
2015-Mar-22 09:22N 33°46' W 118°13'0 0.0
2015-Mar-22 08:33N 33°46' W 118°13'0 0.0
2015-Mar-22 07:33N 33°46' W 118°13'0 0.0
2015-Mar-22 06:33N 33°46' W 118°13'0 0.0
2015-Mar-22 05:26N 33°46' W 118°13'0 0.0
2015-Mar-22 02:27N 33°46' W 118°13'12281101.6
2015-Mar-22 01:20N 29°19' W 094°47'12281584.0
2015-Mar-22 00:33N 33°46' W 118°13'122584782.6
2015-Mar-22 00:32N 29°24' W 094°49'8 7.8
2015-Mar-21 23:33N 29°31' W 094°53'8 7.8
2015-Mar-21 22:33N 29°37' W 094°58'12131211.3
2015-Mar-21 21:33N 33°46' W 118°13'12081449492.1
2015-Mar-21 21:33N 29°44' W 095°02'5 4.3
2015-Mar-21 20:25N 29°47' W 095°06'1 1.5
2015-Mar-21 19:31N 29°47' W 095°05'12044437.5
2015-Mar-21 19:14N 33°46' W 118°13'0 0.0
2015-Mar-21 18:32N 33°46' W 118°13'0 0.0
2015-Mar-21 17:31N 33°46' W 118°13'0 0.0
2015-Mar-21 16:19N 33°46' W 118°13'12041573.0
2015-Mar-21 15:33N 29°47' W 095°05'1 1.1
2015-Mar-21 14:18N 29°47' W 095°06'0 0.0
2015-Mar-21 13:12N 29°47' W 095°06'12031792.3
2015-Mar-21 12:32N 33°46' W 118°13'0 0.0
2015-Mar-21 11:13N 33°46' W 118°13'0 0.0
2015-Mar-21 10:31N 33°46' W 118°13'12035511.4
2015-Mar-21 10:18N 29°47' W 095°06'0 0.0
2015-Mar-21 09:33N 29°47' W 095°06'1203393815.2
2015-Mar-21 09:33N 33°46' W 118°13'12031208.0
2015-Mar-21 08:33N 29°47' W 095°06'120324896.4
2015-Mar-21 08:30N 33°46' W 118°13'12031264.4
2015-Mar-21 07:33N 29°47' W 095°06'120314635.0
2015-Mar-21 07:28N 33°46' W 118°13'0 0.0
2015-Mar-21 06:20N 33°46' W 118°13'120329875.6
2015-Mar-21 06:18N 29°47' W 095°06'0 0.0
2015-Mar-21 05:27N 29°47' W 095°06'120313087.5
2015-Mar-21 05:21N 33°46' W 118°13'0 0.0
2015-Mar-21 04:33N 33°46' W 118°13'0 0.0
2015-Mar-21 03:33N 33°46' W 118°13'0 0.0
2015-Mar-21 02:33N 33°46' W 118°13'120320727.1
2015-Mar-21 02:30N 29°47' W 095°06'12031266.3
2015-Mar-21 01:33N 33°46' W 118°13'120324896.4
2015-Mar-21 01:30N 29°47' W 095°06'12031278.6
2015-Mar-21 00:33N 33°46' W 118°13'0 0.0
2015-Mar-20 23:33N 33°46' W 118°13'1203120332.4
2015-Mar-20 23:33N 29°47' W 095°06'12031215.8
2015-Mar-20 22:34N 33°46' W 118°13'12032354.3
2015-Mar-20 22:03N 29°47' W 095°06'12032461.3
2015-Mar-20 21:34N 33°46' W 118°13'0 0.0
2015-Mar-20 20:33N 33°46' W 118°13'12032369.8
2015-Mar-20 20:03N 29°47' W 095°06'12032458.6
2015-Mar-20 19:34N 33°46' W 118°13'12034593.8
2015-Mar-20 19:18N 29°47' W 095°06'12031629.2
2015-Mar-20 18:33N 33°46' W 118°13'120319601.7
2015-Mar-20 18:30N 29°47' W 095°06'12031282.4
2015-Mar-20 17:33N 33°46' W 118°13'1203113999.1
2015-Mar-20 17:33N 29°47' W 095°06'0 0.0
2015-Mar-20 16:33N 29°47' W 095°06'120348133.0
2015-Mar-20 16:31N 33°46' W 118°13'0 0.0
2015-Mar-20 15:33N 33°46' W 118°13'12034331966.7
2015-Mar-20 15:33N 29°47' W 095°06'12031216.8
2015-Mar-20 14:33N 33°46' W 118°13'1203100743.4
2015-Mar-20 14:33N 29°47' W 095°06'12031217.9
2015-Mar-20 13:33N 33°46' W 118°13'1203108299.2
2015-Mar-20 13:33N 29°47' W 095°06'1203933.6
2015-Mar-20 12:15N 33°46' W 118°13'0 0.0
2015-Mar-20 11:31N 33°46' W 118°13'0 0.0
2015-Mar-20 10:33N 33°46' W 118°13'1203600.7
2015-Mar-20 08:33N 29°47' W 095°06'1203111076.1
2015-Mar-20 08:32N 33°46' W 118°13'0 0.0
2015-Mar-20 07:33N 33°46' W 118°13'0 0.0
2015-Mar-20 06:33N 33°46' W 118°13'0 0.0
2015-Mar-20 05:32N 33°46' W 118°13'0 0.0
2015-Mar-20 04:31N 33°46' W 118°13'12039377.1
2015-Mar-20 04:23N 29°46' W 095°06'2 2.1
2015-Mar-20 03:33N 29°45' W 095°06'120464686.0
2015-Mar-20 03:32N 33°46' W 118°13'12041113.3
2015-Mar-20 02:27N 29°45' W 095°06'120412489.8
2015-Mar-20 02:21N 33°46' W 118°13'0 0.0
2015-Mar-20 01:33N 33°46' W 118°13'120488448.2
2015-Mar-20 01:33N 29°45' W 095°06'12041212.0
2015-Mar-20 00:33N 33°46' W 118°13'12047657.2
2015-Mar-20 00:24N 29°45' W 095°06'0 0.0
2015-Mar-19 23:33N 29°45' W 095°06'1204722327.2
2015-Mar-19 23:32N 33°46' W 118°13'0 0.0
2015-Mar-19 22:33N 33°46' W 118°13'1204108349.1
2015-Mar-19 22:33N 29°45' W 095°06'12041220.8
2015-Mar-19 21:33N 33°46' W 118°13'120410493.9
2015-Mar-19 21:27N 29°45' W 095°06'12041360.3
2015-Mar-19 20:34N 33°46' W 118°13'120418364.2
2015-Mar-19 20:30N 29°45' W 095°06'12041288.3
2015-Mar-19 19:34N 33°46' W 118°13'120410418.2
2015-Mar-19 19:27N 29°45' W 095°06'12041360.3
2015-Mar-19 18:33N 33°46' W 118°13'120410393.2
2015-Mar-19 18:27N 29°45' W 095°06'12041362.0
2015-Mar-19 17:33N 33°46' W 118°13'120474723.5
2015-Mar-19 17:33N 29°45' W 095°06'12041220.5
2015-Mar-19 16:33N 33°46' W 118°13'120496310.3
2015-Mar-19 16:33N 29°45' W 095°06'12041222.2
2015-Mar-19 15:33N 33°46' W 118°13'1203228020.0
2015-Mar-19 15:33N 29°46' W 095°06'0 0.3
2015-Mar-19 14:31N 29°47' W 095°06'12033482.3
2015-Mar-19 14:10N 33°46' W 118°13'12031832.5
2015-Mar-19 13:31N 29°47' W 095°06'120377356.5
2015-Mar-19 13:30N 33°46' W 118°13'12031222.7
2015-Mar-19 12:31N 29°47' W 095°06'120374689.1
2015-Mar-19 12:30N 33°46' W 118°13'0 0.0
2015-Mar-19 11:34N 33°46' W 118°13'1204154803.4
2015-Mar-19 11:33N 29°46' W 095°05'12041210.1
2015-Mar-19 10:33N 33°46' W 118°13'0 0.0
2015-Mar-19 09:33N 33°46' W 118°13'0 0.0
2015-Mar-19 08:33N 33°46' W 118°13'0 0.0
2015-Mar-19 07:33N 33°46' W 118°13'0 0.0
2015-Mar-19 06:33N 33°46' W 118°13'0 0.0
2015-Mar-19 05:33N 33°46' W 118°13'0 0.0
2015-Mar-19 04:34N 33°46' W 118°13'0 0.0
2015-Mar-19 03:33N 33°46' W 118°13'0 0.0
2015-Mar-19 02:33N 33°46' W 118°13'0 0.0
2015-Mar-19 01:33N 33°46' W 118°13'0 0.0
2015-Mar-19 00:33N 33°46' W 118°13'1203558.2
2015-Mar-18 22:24N 29°46' W 095°06'1 1.0
2015-Mar-18 21:33N 29°46' W 095°05'1 1.1
2015-Mar-18 20:33N 29°47' W 095°06'12032957.0
2015-Mar-18 20:09N 33°46' W 118°13'12032028.2
2015-Mar-18 19:33N 29°46' W 095°06'1203866428.7
2015-Mar-18 19:33N 33°46' W 118°13'0 0.0
2015-Mar-18 18:32N 33°46' W 118°13'12031243.0
2015-Mar-18 17:33N 29°47' W 095°06'1203866391.7
2015-Mar-18 17:33N 33°46' W 118°13'12031205.0
2015-Mar-18 16:33N 29°47' W 095°06'1203866393.0
2015-Mar-18 16:33N 33°46' W 118°13'12031205.3
2015-Mar-18 15:33N 29°47' W 095°06'1203866393.0
2015-Mar-18 15:33N 33°46' W 118°13'12031204.7
2015-Mar-18 14:33N 29°47' W 095°06'1203866391.7
2015-Mar-18 14:33N 33°46' W 118°13'12031205.3
2015-Mar-18 13:33N 29°47' W 095°06'1203866403.8
2015-Mar-18 13:33N 33°46' W 118°13'0 0.0
2015-Mar-18 12:33N 33°46' W 118°13'1203866285.0
2015-Mar-18 12:33N 29°44' W 095°07'0 0.1
2015-Mar-18 11:32N 29°44' W 095°07'12039294.7
2015-Mar-18 11:25N 33°46' W 118°13'0 0.0
2015-Mar-18 10:33N 33°46' W 118°13'12039498.6
2015-Mar-18 10:26N 29°44' W 095°07'12031377.7
2015-Mar-18 09:33N 33°46' W 118°13'0 0.0
2015-Mar-18 08:33N 33°46' W 118°13'120316344.7
2015-Mar-18 08:29N 29°44' W 095°07'12031294.9
2015-Mar-18 07:33N 33°46' W 118°13'0 0.0
2015-Mar-18 06:33N 33°46' W 118°13'12032470.8
2015-Mar-18 06:04N 29°44' W 095°07'12032024.9
2015-Mar-18 05:29N 33°46' W 118°13'120314294.9
2015-Mar-18 05:23N 29°44' W 095°07'12031431.9
2015-Mar-18 04:33N 33°46' W 118°13'12033816.2
2015-Mar-18 04:14N 29°44' W 095°07'12031763.6
2015-Mar-18 03:33N 33°46' W 118°13'120329871.3
2015-Mar-18 03:31N 29°44' W 095°07'12031257.6
2015-Mar-18 02:33N 33°46' W 118°13'12029285.1
2015-Mar-18 02:26N 29°44' W 095°09'12021375.8
2015-Mar-18 01:33N 33°46' W 118°13'  
Track history (hours):
 
Tides and Currents Weather Stations Pressure Air Temp Water Temp Dewpoint Dewpoint Depression Visibility Wind Speed Wind Dir Waves Ship Positions

Patcona II

Owner: Connolly-Pacific Co, long beach, CA. More information available from US FCC via Universal Licensing System and Coast Guard Vessel Documentation Center.

Last reported at 2015-Mar-28 00:34 UTC. Time now 2015-Mar-28 00:36 UTC.
Position N 33°46' W 118°13'.

; draft 9 m.

Type: Towing. MMSI: 366988960.

Date/timePositionNaut miles runAvg speedWind from/ knotsBaromVisibWave heightAir tempDewpointWater temp
2015-Mar-28 00:34N 33°46' W 118°13'12041444608.6
2015-Mar-28 00:33N 29°45' W 095°06'12041204.2
2015-Mar-27 23:33N 33°46' W 118°13'120414071.2
2015-Mar-27 23:28N 29°45' W 095°06'12041316.9
2015-Mar-27 22:33N 33°46' W 118°13'12043587.7
2015-Mar-27 22:13N 29°45' W 095°06'12041811.8
2015-Mar-27 21:33N 33°46' W 118°13'120414398.5
2015-Mar-27 21:28N 29°45' W 095°06'12041313.3
2015-Mar-27 20:33N 33°46' W 118°13'120414303.4
2015-Mar-27 20:28N 29°45' W 095°06'12041314.9
2015-Mar-27 19:33N 33°46' W 118°13'120433858.7
2015-Mar-27 19:31N 29°45' W 095°06'12041245.4
2015-Mar-27 18:33N 33°46' W 118°13'120414592.4
2015-Mar-27 18:28N 29°45' W 095°06'12041315.3
2015-Mar-27 17:33N 33°46' W 118°13'120414071.2
2015-Mar-27 17:28N 29°45' W 095°06'12041312.5
2015-Mar-27 16:33N 33°46' W 118°13'120437361.5
2015-Mar-27 16:31N 29°45' W 095°06'12041247.5
2015-Mar-27 15:33N 33°46' W 118°13'1204270870.9
2015-Mar-27 15:33N 29°45' W 095°06'12041209.6
2015-Mar-27 14:34N 33°46' W 118°13'1202540742.2
2015-Mar-27 14:33N 29°44' W 095°09'1 1.2
2015-Mar-27 13:33N 29°45' W 095°10'1201540252.2
2015-Mar-27 13:33N 33°46' W 118°13'0 0.0
2015-Mar-27 12:33N 33°46' W 118°13'0 0.0
2015-Mar-27 11:33N 33°46' W 118°13'12011203.6
2015-Mar-27 10:33N 29°45' W 095°10'1201432201.8
2015-Mar-27 10:33N 33°46' W 118°13'0 0.0
2015-Mar-27 09:33N 33°46' W 118°13'0 0.0
2015-Mar-27 08:33N 33°46' W 118°13'0 0.0
2015-Mar-27 07:34N 33°46' W 118°13'12017974.2
2015-Mar-27 07:24N 29°45' W 095°10'12011413.3
2015-Mar-27 06:34N 33°46' W 118°13'120131317.8
2015-Mar-27 06:31N 29°45' W 095°10'12011247.6
2015-Mar-27 05:33N 33°46' W 118°13'0 0.0
2015-Mar-27 04:33N 33°46' W 118°13'0 0.0
2015-Mar-27 03:34N 33°46' W 118°13'0 0.0
2015-Mar-27 02:33N 33°46' W 118°13'0 0.0
2015-Mar-27 01:34N 33°46' W 118°13'0 0.0
2015-Mar-27 00:34N 33°46' W 118°13'0 0.0
2015-Mar-26 23:33N 33°46' W 118°13'0 0.0
2015-Mar-26 22:33N 33°46' W 118°13'0 0.0
2015-Mar-26 21:33N 33°46' W 118°13'0 0.0
2015-Mar-26 20:34N 33°46' W 118°13'0 0.0
2015-Mar-26 19:33N 33°46' W 118°13'0 0.0
2015-Mar-26 18:33N 33°46' W 118°13'120465653.3
2015-Mar-26 18:32N 29°44' W 095°06'12041226.1
2015-Mar-26 17:33N 33°46' W 118°13'119719864.7
2015-Mar-26 17:30N 29°43' W 095°14'11971275.0
2015-Mar-26 16:34N 33°46' W 118°13'0 0.0
2015-Mar-26 15:33N 33°46' W 118°13'0 0.0
2015-Mar-26 14:33N 33°46' W 118°13'0 0.0
2015-Mar-26 13:33N 33°46' W 118°13'0 0.0
2015-Mar-26 12:33N 33°46' W 118°13'0 0.0
2015-Mar-26 11:33N 33°46' W 118°13'0 0.0
2015-Mar-26 10:33N 33°46' W 118°13'119812719.6
2015-Mar-26 10:28N 29°43' W 095°14'11981325.9
2015-Mar-26 09:33N 33°46' W 118°13'120390210.4
2015-Mar-26 09:33N 29°44' W 095°08'12031219.1
2015-Mar-26 08:33N 33°46' W 118°13'0 0.0
2015-Mar-26 07:33N 33°46' W 118°13'0 0.0
2015-Mar-26 06:33N 33°46' W 118°13'0 0.0
2015-Mar-26 05:34N 33°46' W 118°13'0 0.0
2015-Mar-26 04:33N 33°46' W 118°13'0 0.0
2015-Mar-26 03:33N 33°46' W 118°13'0 0.0
2015-Mar-26 02:30N 33°46' W 118°13'12041270.7
2015-Mar-26 01:33N 29°45' W 095°06'1204433423.8
2015-Mar-26 01:33N 33°46' W 118°13'0 0.0
2015-Mar-26 00:33N 33°46' W 118°13'12027884.1
2015-Mar-26 00:24N 29°44' W 095°08'12021419.1
2015-Mar-25 23:33N 33°46' W 118°13'1202196743.2
2015-Mar-25 23:33N 29°44' W 095°08'12021212.4
2015-Mar-25 22:33N 33°46' W 118°13'1202149253.5
2015-Mar-25 22:33N 29°44' W 095°08'12021212.8
2015-Mar-25 21:34N 33°46' W 118°13'12024328350.9
2015-Mar-25 21:33N 29°44' W 095°08'12021202.3
2015-Mar-25 20:33N 33°46' W 118°13'120243283.6
2015-Mar-25 20:32N 29°44' W 095°08'12021236.7
2015-Mar-25 19:33N 33°46' W 118°13'119953292.3
2015-Mar-25 19:32N 29°44' W 095°12'11991219.7
2015-Mar-25 18:33N 33°46' W 118°13'11957338.3
2015-Mar-25 18:23N 29°45' W 095°17'11951436.8
2015-Mar-25 17:34N 33°46' W 118°13'119517551.9
2015-Mar-25 17:29N 29°45' W 095°17'0 0.0
2015-Mar-25 16:32N 29°45' W 095°17'119514676.5
2015-Mar-25 16:27N 33°46' W 118°13'0 0.0
2015-Mar-25 15:33N 33°46' W 118°13'119561431.9
2015-Mar-25 15:32N 29°45' W 095°17'11951200.8
2015-Mar-25 14:33N 33°46' W 118°13'1195172009.7
2015-Mar-25 14:32N 29°45' W 095°17'11951210.3
2015-Mar-25 13:33N 33°46' W 118°13'1195102386.2
2015-Mar-25 13:32N 29°45' W 095°17'11951194.5
2015-Mar-25 12:32N 33°46' W 118°13'0 0.0
2015-Mar-25 11:33N 33°46' W 118°13'11978290.1
2015-Mar-25 11:25N 29°43' W 095°14'11971377.3
2015-Mar-25 10:33N 33°46' W 118°13'119826955.1
2015-Mar-25 10:30N 29°44' W 095°14'11981268.9
2015-Mar-25 09:33N 33°46' W 118°13'0 0.0
2015-Mar-25 08:33N 33°46' W 118°13'0 0.0
2015-Mar-25 07:31N 33°46' W 118°13'0 0.0
2015-Mar-25 06:33N 33°46' W 118°13'0 0.0
2015-Mar-25 05:33N 33°46' W 118°13'0 0.0
2015-Mar-25 04:33N 33°46' W 118°13'119811349.5
2015-Mar-25 04:27N 29°44' W 095°14'11981123.4
2015-Mar-25 03:23N 33°46' W 118°13'119835063.6
2015-Mar-25 03:21N 29°44' W 095°14'11981499.1
2015-Mar-25 02:33N 33°46' W 118°13'11987884.5
2015-Mar-25 02:24N 29°44' W 095°14'11981422.0
2015-Mar-25 01:33N 33°46' W 118°13'1198179701.6
2015-Mar-25 01:33N 29°44' W 095°14'0 0.0
2015-Mar-25 00:33N 29°44' W 095°14'119882939.2
2015-Mar-25 00:32N 33°46' W 118°13'0 0.0
2015-Mar-24 23:33N 33°46' W 118°13'1198107851.3
2015-Mar-24 23:33N 29°44' W 095°13'11981215.2
2015-Mar-24 22:33N 33°46' W 118°13'120462793.7
2015-Mar-24 22:32N 29°44' W 095°07'5 5.1
2015-Mar-24 21:33N 29°43' W 095°01'120962153.4
2015-Mar-24 21:32N 33°46' W 118°13'12131236.2
2015-Mar-24 20:33N 29°39' W 094°58'1213485006.9
2015-Mar-24 20:33N 33°46' W 118°13'12181220.9
2015-Mar-24 19:33N 29°33' W 094°54'12184383088.7
2015-Mar-24 19:33N 33°46' W 118°13'0 0.0
2015-Mar-24 18:33N 33°46' W 118°13'0 0.0
2015-Mar-24 17:33N 33°46' W 118°13'12246625.9
2015-Mar-24 17:22N 29°22' W 094°50'12241491.1
2015-Mar-24 16:33N 33°46' W 118°13'0 0.0
2015-Mar-24 15:17N 33°46' W 118°13'0 0.0
2015-Mar-24 14:33N 33°46' W 118°13'0 0.0
2015-Mar-24 13:32N 33°46' W 118°13'12207680.8
2015-Mar-24 13:22N 29°22' W 094°55'12201485.3
2015-Mar-24 12:33N 33°46' W 118°13'0 0.0
2015-Mar-24 11:33N 33°46' W 118°13'0 0.0
2015-Mar-24 10:34N 33°46' W 118°13'0 0.0
2015-Mar-24 09:22N 33°46' W 118°13'0 0.0
2015-Mar-24 08:28N 33°46' W 118°13'0 0.0
2015-Mar-24 07:33N 33°46' W 118°13'0 0.0
2015-Mar-24 06:33N 33°46' W 118°13'0 0.0
2015-Mar-24 05:31N 33°46' W 118°13'0 0.0
2015-Mar-24 04:32N 33°46' W 118°13'0 0.0
2015-Mar-24 03:33N 33°46' W 118°13'0 0.0
2015-Mar-24 02:33N 33°46' W 118°13'0 0.0
2015-Mar-24 01:33N 33°46' W 118°13'0 0.0
2015-Mar-24 00:33N 33°46' W 118°13'0 0.0
2015-Mar-23 23:33N 33°46' W 118°13'0 0.0
2015-Mar-23 22:34N 33°46' W 118°13'0 0.0
2015-Mar-23 21:33N 33°46' W 118°13'0 0.0
2015-Mar-23 20:33N 33°46' W 118°13'0 0.0
2015-Mar-23 19:33N 33°46' W 118°13'0 0.0
2015-Mar-23 18:33N 33°46' W 118°13'0 0.0
2015-Mar-23 17:32N 33°46' W 118°13'0 0.0
2015-Mar-23 16:33N 33°46' W 118°13'0 0.0
2015-Mar-23 15:33N 33°46' W 118°13'0 0.0
2015-Mar-23 14:33N 33°46' W 118°13'0 0.0
2015-Mar-23 13:33N 33°46' W 118°13'0 0.0
2015-Mar-23 12:33N 33°46' W 118°13'0 0.0
2015-Mar-23 11:34N 33°46' W 118°13'0 0.0
2015-Mar-23 10:33N 33°46' W 118°13'0 0.0
2015-Mar-23 09:34N 33°46' W 118°13'0 0.0
2015-Mar-23 08:34N 33°46' W 118°13'0 0.0
2015-Mar-23 07:32N 33°46' W 118°13'0 0.0
2015-Mar-23 06:33N 33°46' W 118°13'0 0.0
2015-Mar-23 05:33N 33°46' W 118°13'0 0.0
2015-Mar-23 04:32N 33°46' W 118°13'0 0.0
2015-Mar-23 03:33N 33°46' W 118°13'0 0.0
2015-Mar-23 02:33N 33°46' W 118°13'0 0.0
2015-Mar-23 01:33N 33°46' W 118°13'0 0.0
2015-Mar-23 00:33N 33°46' W 118°13'0 0.0
2015-Mar-22 23:33N 33°46' W 118°13'12202657.8
2015-Mar-22 23:05N 29°22' W 094°55'12202212.2
2015-Mar-22 22:32N 33°46' W 118°13'122321584.8
2015-Mar-22 22:29N 29°23' W 094°51'12231323.5
2015-Mar-22 21:33N 33°46' W 118°13'0 0.0
2015-Mar-22 20:33N 33°46' W 118°13'0 0.0
2015-Mar-22 19:33N 33°46' W 118°13'0 0.0
2015-Mar-22 18:33N 33°46' W 118°13'0 0.0
2015-Mar-22 17:33N 33°46' W 118°13'0 0.0
2015-Mar-22 16:33N 33°46' W 118°13'0 0.0
2015-Mar-22 15:18N 33°46' W 118°13'0 0.0
2015-Mar-22 14:33N 33°46' W 118°13'0 0.0
2015-Mar-22 13:32N 33°46' W 118°13'0 0.0
2015-Mar-22 12:24N 33°46' W 118°13'0 0.0
2015-Mar-22 11:33N 33°46' W 118°13'0 0.0
2015-Mar-22 10:31N 33°46' W 118°13'0 0.0
2015-Mar-22 09:22N 33°46' W 118°13'0 0.0
2015-Mar-22 08:33N 33°46' W 118°13'0 0.0
2015-Mar-22 07:33N 33°46' W 118°13'0 0.0
2015-Mar-22 06:33N 33°46' W 118°13'0 0.0
2015-Mar-22 05:26N 33°46' W 118°13'0 0.0
2015-Mar-22 02:27N 33°46' W 118°13'12281101.6
2015-Mar-22 01:20N 29°19' W 094°47'12281584.0
2015-Mar-22 00:33N 33°46' W 118°13'122584782.6
2015-Mar-22 00:32N 29°24' W 094°49'8 7.8
2015-Mar-21 23:33N 29°31' W 094°53'8 7.8
2015-Mar-21 22:33N 29°37' W 094°58'12131211.3
2015-Mar-21 21:33N 33°46' W 118°13'12081449492.1
2015-Mar-21 21:33N 29°44' W 095°02'5 4.3
2015-Mar-21 20:25N 29°47' W 095°06'1 1.5
2015-Mar-21 19:31N 29°47' W 095°05'12044437.5
2015-Mar-21 19:14N 33°46' W 118°13'0 0.0
2015-Mar-21 18:32N 33°46' W 118°13'0 0.0
2015-Mar-21 17:31N 33°46' W 118°13'0 0.0
2015-Mar-21 16:19N 33°46' W 118°13'12041573.0
2015-Mar-21 15:33N 29°47' W 095°05'1 1.1
2015-Mar-21 14:18N 29°47' W 095°06'0 0.0
2015-Mar-21 13:12N 29°47' W 095°06'12031792.3
2015-Mar-21 12:32N 33°46' W 118°13'0 0.0
2015-Mar-21 11:13N 33°46' W 118°13'0 0.0
2015-Mar-21 10:31N 33°46' W 118°13'12035511.4
2015-Mar-21 10:18N 29°47' W 095°06'0 0.0
2015-Mar-21 09:33N 29°47' W 095°06'1203393815.2
2015-Mar-21 09:33N 33°46' W 118°13'12031208.0
2015-Mar-21 08:33N 29°47' W 095°06'120324896.4
2015-Mar-21 08:30N 33°46' W 118°13'12031264.4
2015-Mar-21 07:33N 29°47' W 095°06'120314635.0
2015-Mar-21 07:28N 33°46' W 118°13'0 0.0
2015-Mar-21 06:20N 33°46' W 118°13'120329875.6
2015-Mar-21 06:18N 29°47' W 095°06'0 0.0
2015-Mar-21 05:27N 29°47' W 095°06'120313087.5
2015-Mar-21 05:21N 33°46' W 118°13'0 0.0
2015-Mar-21 04:33N 33°46' W 118°13'0 0.0
2015-Mar-21 03:33N 33°46' W 118°13'0 0.0
2015-Mar-21 02:33N 33°46' W 118°13'120320727.1
2015-Mar-21 02:30N 29°47' W 095°06'12031266.3
2015-Mar-21 01:33N 33°46' W 118°13'120324896.4
2015-Mar-21 01:30N 29°47' W 095°06'12031278.6
2015-Mar-21 00:33N 33°46' W 118°13'0 0.0
2015-Mar-20 23:33N 33°46' W 118°13'1203120332.4
2015-Mar-20 23:33N 29°47' W 095°06'12031215.8
2015-Mar-20 22:34N 33°46' W 118°13'12032354.3
2015-Mar-20 22:03N 29°47' W 095°06'12032461.3
2015-Mar-20 21:34N 33°46' W 118°13'0 0.0
2015-Mar-20 20:33N 33°46' W 118°13'12032369.8
2015-Mar-20 20:03N 29°47' W 095°06'12032458.6
2015-Mar-20 19:34N 33°46' W 118°13'12034593.8
2015-Mar-20 19:18N 29°47' W 095°06'12031629.2
2015-Mar-20 18:33N 33°46' W 118°13'120319601.7
2015-Mar-20 18:30N 29°47' W 095°06'12031282.4
2015-Mar-20 17:33N 33°46' W 118°13'1203113999.1
2015-Mar-20 17:33N 29°47' W 095°06'0 0.0
2015-Mar-20 16:33N 29°47' W 095°06'120348133.0
2015-Mar-20 16:31N 33°46' W 118°13'0 0.0
2015-Mar-20 15:33N 33°46' W 118°13'12034331966.7
2015-Mar-20 15:33N 29°47' W 095°06'12031216.8
2015-Mar-20 14:33N 33°46' W 118°13'1203100743.4
2015-Mar-20 14:33N 29°47' W 095°06'12031217.9
2015-Mar-20 13:33N 33°46' W 118°13'1203108299.2
2015-Mar-20 13:33N 29°47' W 095°06'1203933.6
2015-Mar-20 12:15N 33°46' W 118°13'0 0.0
2015-Mar-20 11:31N 33°46' W 118°13'0 0.0
2015-Mar-20 10:33N 33°46' W 118°13'1203600.7
2015-Mar-20 08:33N 29°47' W 095°06'1203111076.1
2015-Mar-20 08:32N 33°46' W 118°13'0 0.0
2015-Mar-20 07:33N 33°46' W 118°13'0 0.0
2015-Mar-20 06:33N 33°46' W 118°13'0 0.0
2015-Mar-20 05:32N 33°46' W 118°13'0 0.0
2015-Mar-20 04:31N 33°46' W 118°13'12039377.1
2015-Mar-20 04:23N 29°46' W 095°06'2 2.1
2015-Mar-20 03:33N 29°45' W 095°06'120464686.0
2015-Mar-20 03:32N 33°46' W 118°13'12041113.3
2015-Mar-20 02:27N 29°45' W 095°06'120412489.8
2015-Mar-20 02:21N 33°46' W 118°13'0 0.0
2015-Mar-20 01:33N 33°46' W 118°13'120488448.2
2015-Mar-20 01:33N 29°45' W 095°06'12041212.0
2015-Mar-20 00:33N 33°46' W 118°13'12047657.2
2015-Mar-20 00:24N 29°45' W 095°06'0 0.0
2015-Mar-19 23:33N 29°45' W 095°06'1204722327.2
2015-Mar-19 23:32N 33°46' W 118°13'0 0.0
2015-Mar-19 22:33N 33°46' W 118°13'1204108349.1
2015-Mar-19 22:33N 29°45' W 095°06'12041220.8
2015-Mar-19 21:33N 33°46' W 118°13'120410493.9
2015-Mar-19 21:27N 29°45' W 095°06'12041360.3
2015-Mar-19 20:34N 33°46' W 118°13'120418364.2
2015-Mar-19 20:30N 29°45' W 095°06'12041288.3
2015-Mar-19 19:34N 33°46' W 118°13'120410418.2
2015-Mar-19 19:27N 29°45' W 095°06'12041360.3
2015-Mar-19 18:33N 33°46' W 118°13'120410393.2
2015-Mar-19 18:27N 29°45' W 095°06'12041362.0
2015-Mar-19 17:33N 33°46' W 118°13'120474723.5
2015-Mar-19 17:33N 29°45' W 095°06'12041220.5
2015-Mar-19 16:33N 33°46' W 118°13'120496310.3
2015-Mar-19 16:33N 29°45' W 095°06'12041222.2
2015-Mar-19 15:33N 33°46' W 118°13'1203228020.0
2015-Mar-19 15:33N 29°46' W 095°06'0 0.3
2015-Mar-19 14:31N 29°47' W 095°06'12033482.3
2015-Mar-19 14:10N 33°46' W 118°13'12031832.5
2015-Mar-19 13:31N 29°47' W 095°06'120377356.5
2015-Mar-19 13:30N 33°46' W 118°13'12031222.7
2015-Mar-19 12:31N 29°47' W 095°06'120374689.1
2015-Mar-19 12:30N 33°46' W 118°13'0 0.0
2015-Mar-19 11:34N 33°46' W 118°13'1204154803.4
2015-Mar-19 11:33N 29°46' W 095°05'12041210.1
2015-Mar-19 10:33N 33°46' W 118°13'0 0.0
2015-Mar-19 09:33N 33°46' W 118°13'0 0.0
2015-Mar-19 08:33N 33°46' W 118°13'0 0.0
2015-Mar-19 07:33N 33°46' W 118°13'0 0.0
2015-Mar-19 06:33N 33°46' W 118°13'0 0.0
2015-Mar-19 05:33N 33°46' W 118°13'0 0.0
2015-Mar-19 04:34N 33°46' W 118°13'0 0.0
2015-Mar-19 03:33N 33°46' W 118°13'0 0.0
2015-Mar-19 02:33N 33°46' W 118°13'0 0.0
2015-Mar-19 01:33N 33°46' W 118°13'0 0.0
2015-Mar-19 00:33N 33°46' W 118°13'1203558.2
2015-Mar-18 22:24N 29°46' W 095°06'1 1.0
2015-Mar-18 21:33N 29°46' W 095°05'1 1.1
2015-Mar-18 20:33N 29°47' W 095°06'12032957.0
2015-Mar-18 20:09N 33°46' W 118°13'12032028.2
2015-Mar-18 19:33N 29°46' W 095°06'1203866428.7
2015-Mar-18 19:33N 33°46' W 118°13'0 0.0
2015-Mar-18 18:32N 33°46' W 118°13'12031243.0
2015-Mar-18 17:33N 29°47' W 095°06'1203866391.7
2015-Mar-18 17:33N 33°46' W 118°13'12031205.0
2015-Mar-18 16:33N 29°47' W 095°06'1203866393.0
2015-Mar-18 16:33N 33°46' W 118°13'12031205.3
2015-Mar-18 15:33N 29°47' W 095°06'1203866393.0
2015-Mar-18 15:33N 33°46' W 118°13'12031204.7
2015-Mar-18 14:33N 29°47' W 095°06'1203866391.7
2015-Mar-18 14:33N 33°46' W 118°13'12031205.3
2015-Mar-18 13:33N 29°47' W 095°06'1203866403.8
2015-Mar-18 13:33N 33°46' W 118°13'0 0.0
2015-Mar-18 12:33N 33°46' W 118°13'1203866285.0
2015-Mar-18 12:33N 29°44' W 095°07'0 0.1
2015-Mar-18 11:32N 29°44' W 095°07'12039294.7
2015-Mar-18 11:25N 33°46' W 118°13'0 0.0
2015-Mar-18 10:33N 33°46' W 118°13'12039498.6
2015-Mar-18 10:26N 29°44' W 095°07'12031377.7
2015-Mar-18 09:33N 33°46' W 118°13'0 0.0
2015-Mar-18 08:33N 33°46' W 118°13'120316344.7
2015-Mar-18 08:29N 29°44' W 095°07'12031294.9
2015-Mar-18 07:33N 33°46' W 118°13'0 0.0
2015-Mar-18 06:33N 33°46' W 118°13'12032470.8
2015-Mar-18 06:04N 29°44' W 095°07'12032024.9
2015-Mar-18 05:29N 33°46' W 118°13'120314294.9
2015-Mar-18 05:23N 29°44' W 095°07'12031431.9
2015-Mar-18 04:33N 33°46' W 118°13'12033816.2
2015-Mar-18 04:14N 29°44' W 095°07'12031763.6
2015-Mar-18 03:33N 33°46' W 118°13'120329871.3
2015-Mar-18 03:31N 29°44' W 095°07'12031257.6
2015-Mar-18 02:33N 33°46' W 118°13'12029285.1
2015-Mar-18 02:26N 29°44' W 095°09'12021375.8
2015-Mar-18 01:33N 33°46' W 118°13'  

Dump ship's entire track history